Time,TemperatureF,DewpointF,PressureIn,WindDirection,WindDirectionDegrees,WindSpeedMPH,WindSpeedGustMPH,Humidity,HourlyPrecipIn,Conditions,Clouds,dailyrainin,SoftwareType,DateUTC
2013-06-18 00:14:00,71.7,59.0,29.84,NW,320,0.0,-999.0,65,-99.99,,,0.00,weatherlink.com 1.10,2013-06-18 04:14:00,
2013-06-18 00:29:00,71.0,59.0,29.84,NNE,29,0.0,-999.0,67,-99.99,,,0.00,weatherlink.com 1.10,2013-06-18 04:29:00,
2013-06-18 00:44:00,70.7,60.0,29.83,NE,40,0.0,-999.0,69,-99.99,,,0.00,weatherlink.com 1.10,2013-06-18 04:44:00,
2013-06-18 00:59:00,70.5,60.0,29.83,NE,40,0.0,-999.0,70,-99.99,,,0.00,weatherlink.com 1.10,2013-06-18 04:59:00,
2013-06-18 01:14:00,70.1,60.0,29.83,NE,40,0.0,-999.0,71,-99.99,,,0.00,weatherlink.com 1.10,2013-06-18 05:14:00,
2013-06-18 01:29:00,69.8,60.0,29.82,NE,39,0.0,-999.0,72,-99.99,,,0.00,weatherlink.com 1.10,2013-06-18 05:29:00,
2013-06-18 01:44:00,69.3,60.0,29.82,NE,40,0.0,-999.0,73,-99.99,,,0.00,weatherlink.com 1.10,2013-06-18 05:44:00,
2013-06-18 01:59:00,68.8,60.0,29.82,NE,39,0.0,-999.0,74,-99.99,,,0.00,weatherlink.com 1.10,2013-06-18 05:59:00,
2013-06-18 02:14:00,68.2,60.0,29.82,NE,40,0.0,-999.0,76,-99.99,,,0.00,weatherlink.com 1.10,2013-06-18 06:14:00,
2013-06-18 02:30:00,67.7,61.0,29.82,NE,37,0.0,-999.0,78,-99.99,,,0.00,weatherlink.com 1.10,2013-06-18 06:30:00,
2013-06-18 02:45:00,67.4,60.0,29.82,NE,36,0.0,-999.0,78,-99.99,,,0.00,weatherlink.com 1.10,2013-06-18 06:45:00,
2013-06-18 03:00:00,67.0,60.0,29.82,NE,36,0.0,-999.0,79,-99.99,,,0.00,weatherlink.com 1.10,2013-06-18 07:00:00,
2013-06-18 03:15:00,66.6,60.0,29.82,NE,36,0.0,-999.0,80,-99.99,,,0.00,weatherlink.com 1.10,2013-06-18 07:15:00,
2013-06-18 03:30:00,66.3,60.0,29.82,NE,36,0.0,-999.0,81,-99.99,,,0.00,weatherlink.com 1.10,2013-06-18 07:30:00,
2013-06-18 03:45:00,66.1,60.0,29.82,NE,36,0.0,-999.0,81,-99.99,,,0.00,weatherlink.com 1.10,2013-06-18 07:45:00,
2013-06-18 04:00:00,66.2,60.0,29.82,NE,36,0.0,-999.0,81,-99.99,,,0.00,weatherlink.com 1.10,2013-06-18 08:00:00,
2013-06-18 04:15:00,66.5,60.0,29.82,NE,36,0.0,-999.0,80,-99.99,,,0.00,weatherlink.com 1.10,2013-06-18 08:15:00,
2013-06-18 04:30:00,66.3,60.0,29.82,NE,36,0.0,-999.0,81,-99.99,,,0.00,weatherlink.com 1.10,2013-06-18 08:30:00,
2013-06-18 04:45:00,66.0,60.0,29.83,NE,36,0.0,-999.0,81,-99.99,,,0.00,weatherlink.com 1.10,2013-06-18 08:45:00,
2013-06-18 05:00:00,65.4,60.0,29.84,NW,311,0.0,-999.0,83,-99.99,,,0.00,weatherlink.com 1.10,2013-06-18 09:00:00,
2013-06-18 05:15:00,64.7,61.0,29.84,NW,324,0.0,-999.0,86,-99.99,,,0.00,weatherlink.com 1.10,2013-06-18 09:15:00,
2013-06-18 05:31:00,64.7,60.0,29.84,NNW,332,0.0,-999.0,85,-99.99,,,0.00,weatherlink.com 1.10,2013-06-18 09:31:00,
2013-06-18 05:46:00,64.8,60.0,29.84,NNW,333,0.0,-999.0,85,-99.99,,,0.00,weatherlink.com 1.10,2013-06-18 09:46:00,
2013-06-18 06:01:00,65.0,60.0,29.85,NE,44,0.0,-999.0,85,-99.99,,,0.00,weatherlink.com 1.10,2013-06-18 10:01:00,
2013-06-18 06:16:00,65.1,61.0,29.84,NE,46,0.0,-999.0,85,-99.99,,,0.00,weatherlink.com 1.10,2013-06-18 10:16:00,
2013-06-18 06:31:00,65.0,60.0,29.85,NE,46,0.0,-999.0,85,-99.99,,,0.00,weatherlink.com 1.10,2013-06-18 10:31:00,
2013-06-18 06:46:00,64.8,61.0,29.86,NE,45,0.0,-999.0,86,-99.99,,,0.00,weatherlink.com 1.10,2013-06-18 10:46:00,
2013-06-18 07:01:00,64.5,61.0,29.86,NE,45,0.0,-999.0,87,-99.99,,,0.00,weatherlink.com 1.10,2013-06-18 11:01:00,
2013-06-18 07:16:00,64.5,61.0,29.87,NE,46,0.0,-999.0,88,-99.99,,,0.00,weatherlink.com 1.10,2013-06-18 11:16:00,
2013-06-18 07:31:00,64.8,61.0,29.87,NE,45,0.0,-999.0,87,-99.99,,,0.00,weatherlink.com 1.10,2013-06-18 11:31:00,
2013-06-18 07:46:00,65.3,61.0,29.87,NE,46,0.0,-999.0,87,-99.99,,,0.00,weatherlink.com 1.10,2013-06-18 11:46:00,
2013-06-18 08:01:00,66.1,62.0,29.88,NE,44,0.0,-999.0,86,-99.99,,,0.00,weatherlink.com 1.10,2013-06-18 12:01:00,
2013-06-18 08:16:00,67.2,62.0,29.88,North,360,0.0,-999.0,84,-99.99,,,0.00,weatherlink.com 1.10,2013-06-18 12:16:00,
2013-06-18 08:32:00,67.6,62.0,29.89,NW,315,0.0,-999.0,83,-99.99,,,0.00,weatherlink.com 1.10,2013-06-18 12:32:00,
2013-06-18 08:47:00,67.7,62.0,29.89,NW,324,0.0,-999.0,82,-99.99,,,0.00,weatherlink.com 1.10,2013-06-18 12:47:00,
2013-06-18 09:02:00,66.9,62.0,29.90,North,355,0.0,-999.0,84,-99.99,,,0.00,weatherlink.com 1.10,2013-06-18 13:02:00,
2013-06-18 09:17:00,66.0,61.0,29.91,ENE,63,0.0,-999.0,85,-99.99,,,0.00,weatherlink.com 1.10,2013-06-18 13:17:00,
2013-06-18 09:32:00,64.8,61.0,29.91,NE,37,0.0,-999.0,87,-99.99,,,0.00,weatherlink.com 1.10,2013-06-18 13:32:00,
2013-06-18 09:47:00,64.1,61.0,29.92,NE,40,0.0,-999.0,88,-99.99,,,0.00,weatherlink.com 1.10,2013-06-18 13:47:00,
2013-06-18 10:02:00,64.0,60.0,29.92,NE,42,0.0,-999.0,87,-99.99,,,0.00,weatherlink.com 1.10,2013-06-18 14:02:00,
2013-06-18 10:17:00,64.1,60.0,29.93,ENE,69,0.0,-999.0,87,-99.99,,,0.00,weatherlink.com 1.10,2013-06-18 14:17:00,
2013-06-18 10:32:00,64.4,61.0,29.92,NE,38,0.0,-999.0,87,-99.99,,,0.00,weatherlink.com 1.10,2013-06-18 14:32:00,
2013-06-18 10:47:00,65.0,60.0,29.92,NE,56,0.0,-999.0,85,-99.99,,,0.00,weatherlink.com 1.10,2013-06-18 14:47:00,
2013-06-18 11:02:00,65.7,60.0,29.92,ENE,71,0.0,-999.0,82,-99.99,,,0.00,weatherlink.com 1.10,2013-06-18 15:02:00,
2013-06-18 11:17:00,65.9,60.0,29.92,ENE,64,0.0,-999.0,81,-99.99,,,0.00,weatherlink.com 1.10,2013-06-18 15:17:00,
2013-06-18 11:33:00,66.6,60.0,29.93,East,82,0.0,-999.0,80,-99.99,,,0.00,weatherlink.com 1.10,2013-06-18 15:33:00,
2013-06-18 11:48:00,66.5,60.0,29.92,NNE,13,0.0,-999.0,80,-99.99,,,0.00,weatherlink.com 1.10,2013-06-18 15:48:00,
2013-06-18 12:03:00,67.0,60.0,29.92,ENE,57,0.0,-999.0,79,-99.99,,,0.00,weatherlink.com 1.10,2013-06-18 16:03:00,
2013-06-18 12:18:00,67.9,60.0,29.92,East,83,0.0,-999.0,76,-99.99,,,0.00,weatherlink.com 1.10,2013-06-18 16:18:00,
2013-06-18 12:33:00,67.7,61.0,29.92,ENE,63,0.0,-999.0,78,-99.99,,,0.00,weatherlink.com 1.10,2013-06-18 16:33:00,
2013-06-18 12:48:00,68.8,61.0,29.92,NNE,30,0.0,-999.0,76,-99.99,,,0.00,weatherlink.com 1.10,2013-06-18 16:48:00,
2013-06-18 13:03:00,70.1,61.0,29.92,ENE,67,0.0,-999.0,74,-99.99,,,0.00,weatherlink.com 1.10,2013-06-18 17:03:00,
2013-06-18 13:18:00,70.0,62.0,29.92,NE,37,0.0,-999.0,75,-99.99,,,0.00,weatherlink.com 1.10,2013-06-18 17:18:00,
2013-06-18 13:33:00,71.0,62.0,29.92,NE,41,0.0,-999.0,73,-99.99,,,0.00,weatherlink.com 1.10,2013-06-18 17:33:00,
2013-06-18 13:48:00,71.5,62.0,29.92,East,82,0.0,-999.0,71,-99.99,,,0.00,weatherlink.com 1.10,2013-06-18 17:48:00,
2013-06-18 14:03:00,73.0,63.0,29.92,NNE,13,0.0,-999.0,70,-99.99,,,0.00,weatherlink.com 1.10,2013-06-18 18:03:00,
2013-06-18 14:18:00,73.3,62.0,29.93,NNW,329,0.0,-999.0,67,-99.99,,,0.00,weatherlink.com 1.10,2013-06-18 18:18:00,
2013-06-18 14:33:00,73.5,61.0,29.93,NE,44,0.0,-999.0,66,-99.99,,,0.00,weatherlink.com 1.10,2013-06-18 18:33:00,
2013-06-18 14:49:00,73.5,61.0,29.92,NE,44,0.0,-999.0,66,-99.99,,,0.00,weatherlink.com 1.10,2013-06-18 18:49:00,
2013-06-18 15:04:00,74.2,62.0,29.92,NE,34,0.0,-999.0,65,-99.99,,,0.00,weatherlink.com 1.10,2013-06-18 19:04:00,
2013-06-18 15:19:00,75.7,62.0,29.92,NNW,342,0.0,-999.0,63,-99.99,,,0.00,weatherlink.com 1.10,2013-06-18 19:19:00,
2013-06-18 15:34:00,75.0,61.0,29.92,ENE,72,1.0,-999.0,61,-99.99,,,0.00,weatherlink.com 1.10,2013-06-18 19:34:00,
2013-06-18 15:49:00,74.9,60.0,29.91,ENE,59,0.0,-999.0,60,-99.99,,,0.00,weatherlink.com 1.10,2013-06-18 19:49:00,
2013-06-18 16:04:00,76.6,61.0,29.91,ENE,63,0.0,-999.0,58,-99.99,,,0.00,weatherlink.com 1.10,2013-06-18 20:04:00,
2013-06-18 16:19:00,76.7,60.0,29.91,NNE,28,1.0,-999.0,57,-99.99,,,0.00,weatherlink.com 1.10,2013-06-18 20:19:00,
2013-06-18 16:34:00,76.8,60.0,29.91,ENE,65,0.0,-999.0,56,-99.99,,,0.00,weatherlink.com 1.10,2013-06-18 20:34:00,
2013-06-18 16:49:00,78.0,60.0,29.91,NNE,13,0.0,-999.0,54,-99.99,,,0.00,weatherlink.com 1.10,2013-06-18 20:49:00,
2013-06-18 17:04:00,76.4,60.0,29.91,ENE,78,0.0,-999.0,57,-99.99,,,0.00,weatherlink.com 1.10,2013-06-18 21:04:00,
2013-06-18 17:19:00,76.8,60.0,29.91,NE,44,0.0,-999.0,56,-99.99,,,0.00,weatherlink.com 1.10,2013-06-18 21:19:00,
2013-06-18 17:34:00,75.8,59.0,29.91,North,9,0.0,-999.0,56,-99.99,,,0.00,weatherlink.com 1.10,2013-06-18 21:34:00,
2013-06-18 17:50:00,75.4,60.0,29.91,NE,53,0.0,-999.0,59,-99.99,,,0.00,weatherlink.com 1.10,2013-06-18 21:50:00,
2013-06-18 18:05:00,75.9,59.0,29.91,NNE,17,0.0,-999.0,57,-99.99,,,0.00,weatherlink.com 1.10,2013-06-18 22:05:00,
2013-06-18 18:20:00,76.2,59.0,29.91,NNW,346,0.0,-999.0,56,-99.99,,,0.00,weatherlink.com 1.10,2013-06-18 22:20:00,
2013-06-18 18:35:00,75.7,58.0,29.91,NE,44,1.0,-999.0,55,-99.99,,,0.00,weatherlink.com 1.10,2013-06-18 22:35:00,
2013-06-18 18:50:00,75.1,58.0,29.91,North,10,0.0,-999.0,56,-99.99,,,0.00,weatherlink.com 1.10,2013-06-18 22:50:00,
2013-06-18 19:05:00,75.0,59.0,29.92,NE,45,0.0,-999.0,57,-99.99,,,0.00,weatherlink.com 1.10,2013-06-18 23:05:00,
2013-06-18 19:20:00,74.3,58.0,29.93,NNW,348,0.0,-999.0,57,-99.99,,,0.00,weatherlink.com 1.10,2013-06-18 23:20:00,
2013-06-18 19:35:00,73.9,58.0,29.93,ENE,65,0.0,-999.0,58,-99.99,,,0.00,weatherlink.com 1.10,2013-06-18 23:35:00,
2013-06-18 19:50:00,73.5,58.0,29.93,ENE,57,0.0,-999.0,58,-99.99,,,0.00,weatherlink.com 1.10,2013-06-18 23:50:00,
2013-06-18 20:05:00,72.6,57.0,29.93,NE,52,0.0,-999.0,59,-99.99,,,0.00,weatherlink.com 1.10,2013-06-19 00:05:00,
2013-06-18 20:20:00,72.2,57.0,29.94,ENE,65,0.0,-999.0,60,-99.99,,,0.00,weatherlink.com 1.10,2013-06-19 00:20:00,
2013-06-18 20:35:00,71.6,56.0,29.94,NE,55,0.0,-999.0,59,-99.99,,,0.00,weatherlink.com 1.10,2013-06-19 00:35:00,
2013-06-18 20:51:00,70.9,56.0,29.95,NE,46,0.0,-999.0,60,-99.99,,,0.00,weatherlink.com 1.10,2013-06-19 00:51:00,
2013-06-18 21:06:00,70.2,56.0,29.95,NE,53,0.0,-999.0,62,-99.99,,,0.00,weatherlink.com 1.10,2013-06-19 01:06:00,
2013-06-18 21:21:00,69.5,56.0,29.95,NNE,32,0.0,-999.0,63,-99.99,,,0.00,weatherlink.com 1.10,2013-06-19 01:21:00,
2013-06-18 21:36:00,68.9,56.0,29.95,NE,41,0.0,-999.0,63,-99.99,,,0.00,weatherlink.com 1.10,2013-06-19 01:36:00,
2013-06-18 21:51:00,68.4,56.0,29.95,NE,51,0.0,-999.0,64,-99.99,,,0.00,weatherlink.com 1.10,2013-06-19 01:51:00,
2013-06-18 22:06:00,67.9,56.0,29.96,NE,49,0.0,-999.0,65,-99.99,,,0.00,weatherlink.com 1.10,2013-06-19 02:06:00,
2013-06-18 22:21:00,67.4,55.0,29.97,NE,44,0.0,-999.0,65,-99.99,,,0.00,weatherlink.com 1.10,2013-06-19 02:21:00,
2013-06-18 22:36:00,66.9,55.0,29.98,NE,44,0.0,-999.0,66,-99.99,,,0.00,weatherlink.com 1.10,2013-06-19 02:36:00,
2013-06-18 22:51:00,66.5,55.0,29.98,NE,51,0.0,-999.0,67,-99.99,,,0.00,weatherlink.com 1.10,2013-06-19 02:51:00,
2013-06-18 23:06:00,66.1,55.0,29.99,NE,53,0.0,-999.0,67,-99.99,,,0.00,weatherlink.com 1.10,2013-06-19 03:06:00,
2013-06-18 23:21:00,65.5,55.0,29.99,NE,53,0.0,-999.0,68,-99.99,,,0.00,weatherlink.com 1.10,2013-06-19 03:21:00,
2013-06-18 23:36:00,65.2,54.0,29.99,ENE,76,0.0,-999.0,68,-99.99,,,0.00,weatherlink.com 1.10,2013-06-19 03:36:00,
2013-06-18 23:52:00,64.7,54.0,29.99,ENE,60,0.0,-999.0,68,-99.99,,,0.00,weatherlink.com 1.10,2013-06-19 03:52:00,